Sunday, October 22, 2017, 8:36 PM EDT
Back to Local

KELM, Elmira County Airport

Location: Horseheads, NY, United States Lat: 42.167
Local Time: 8:36 PM EDT ( 0:36 GMT) Lon: -76.9
Time Zone: US/Eastern Elev: 954 ft

Show me the last for .
Show Decoded

2017-10-22 19:53 METAR KELM 222353Z AUTO 19005KT 10SM CLR 19/11 A3026 RMK AO2 SLP248 T01940106
                 10244 20183 53004 =
2017-10-22 18:53 METAR KELM 222253Z AUTO 21006KT 10SM CLR 19/11 A3025 RMK AO2 SLP244 T01940106 =
2017-10-22 17:53 METAR KELM 222153Z 17009KT 10SM CLR 21/11 A3024 RMK AO2 SLP242 T02060111 =
2017-10-22 16:53 METAR KELM 222053Z 16009KT 10SM CLR 23/11 A3024 RMK AO2 SLP241 T02280111 56014 =
2017-10-22 15:53 METAR KELM 221953Z 18005KT 10SM CLR 23/11 A3025 RMK AO2 SLP244 T02330111 =
2017-10-22 14:53 METAR KELM 221853Z 19004KT 10SM CLR 24/12 A3026 RMK AO2 SLP247 T02390117 =
2017-10-22 13:53 METAR KELM 221753Z 20010KT 10SM CLR 24/11 A3028 RMK AO2 SLP254 T02440111 10244
                 20033 56018 =
2017-10-22 12:53 METAR KELM 221653Z 00000KT 10SM CLR 22/11 A3030 RMK AO2 SLP261 T02220111 =
2017-10-22 11:53 METAR KELM 221553Z 00000KT 10SM CLR 19/09 A3032 RMK AO2 SLP269 T01940094 =
2017-10-22 10:53 METAR KELM 221453Z 00000KT 10SM CLR 16/08 A3034 RMK AO2 SLP276 T01560083 58010 =
2017-10-22 09:53 METAR KELM 221353Z 00000KT 10SM CLR 11/08 A3035 RMK AO2 SLP282 T01060078 =
2017-10-22 08:53 METAR KELM 221253Z 09003KT 10SM CLR 07/07 A3036 RMK AO2 SLP287 T00720067 =
2017-10-22 07:53 METAR KELM 221153Z 00000KT 10SM CLR 04/04 A3037 RMK AO2 SLP288 T00390039 10067
                 20028 51010 =
2017-10-22 06:53 METAR KELM 221053Z 27004KT 10SM CLR 03/03 A3036 RMK AO2 SLP285 T00330028 =
2017-10-22 05:58 METAR KELM 220958Z 00000KT 4SM BR CLR 04/04 A3035 RMK AO2 T00390039 =
2017-10-22 05:53 METAR KELM 220953Z 27003KT 1 1/2SM BR CLR 03/03 A3035 RMK AO2 SLP281 T00330033 =
2017-10-22 05:49 METAR KELM 220949Z AUTO 00000KT 1 3/4SM BR CLR 03/03 A3035 RMK AO2 =
2017-10-22 05:22 METAR KELM 220922Z AUTO 00000KT 5SM BR CLR 04/04 A3034 RMK AO2 T00440044 =
2017-10-22 05:10 METAR KELM 220910Z AUTO 00000KT 1 3/4SM BR CLR 03/03 A3034 RMK AO2 T00330028 =
2017-10-22 04:53 METAR KELM 220853Z AUTO 00000KT 10SM CLR 04/04 A3034 RMK AO2 SLP273 T00440039
                 53006 =
2017-10-22 03:53 METAR KELM 220753Z AUTO 00000KT 10SM CLR 06/05 A3033 RMK AO2 SLP270 T00560050 =
2017-10-22 02:53 METAR KELM 220653Z AUTO 00000KT 10SM CLR 04/04 A3032 RMK AO2 SLP267 T00440044 =
2017-10-22 01:53 METAR KELM 220553Z AUTO 00000KT 10SM CLR 07/05 A3032 RMK AO2 SLP267 T00670050
                 10122 20056 56005 =
2017-10-22 00:53 METAR KELM 220453Z AUTO 00000KT 10SM CLR 07/06 A3032 RMK AO2 SLP268 T00670061
                 402440006 =
2017-10-21 23:53 METAR KELM 220353Z AUTO 00000KT 10SM CLR 07/06 A3032 RMK AO2 SLP270 T00720061 =
2017-10-21 22:53 METAR KELM 220253Z AUTO 00000KT 10SM CLR 08/06 A3033 RMK AO2 SLP275 T00780061
                 53005 =
2017-10-21 21:53 METAR KELM 220153Z AUTO 00000KT 10SM CLR 08/07 A3032 RMK AO2 SLP273 T00780067 =
2017-10-21 20:53 METAR KELM 220053Z AUTO 00000KT 6SM BR CLR 09/08 A3032 RMK AO2 SLP273 T00940083
                 =

Support USWX by starting your Amazon purchase here.